Time;durP1;ratioP1;P1;durP2;ratioP2;P2;SDS_P1;SDS_P2;PMS_P1;PMS_P2;Temp;Humidity;BMP_temperature;BMP_pressure;BME280_temperature;BME280_humidity;BME280_pressure;Samples;Min_cycle;Max_cycle;Signal;HPM_P1;HPM_P2
2021/05/03 00:02:34;;;;;;;20.55;12.32;;;11.70;89.50;;;;;;11957043;28;20684;-78
2021/05/03 00:08:20;;;;;;;18.17;12.85;;;11.80;90.00;;;;;;11985134;28;20056;-79
2021/05/03 00:14:07;;;;;;;22.48;14.82;;;11.80;90.00;;;;;;11988133;28;20035;-78
2021/05/03 00:19:54;;;;;;;19.45;13.10;;;11.90;90.00;;;;;;11987625;28;20065;-78
2021/05/03 00:25:41;;;;;;;20.33;13.50;;;12.00;90.00;;;;;;11984107;28;20090;-78
2021/05/03 09:30:43;;;;;;;15.10;9.15;;;13.20;90.30;;;;;;12075573;27;20393;-82
2021/05/03 09:36:31;;;;;;;15.02;8.25;;;13.70;90.40;;;;;;12060726;28;20044;-80
2021/05/03 09:42:18;;;;;;;13.80;8.40;;;14.20;87.70;;;;;;12070416;28;20056;-80
2021/05/03 09:48:06;;;;;;;9.18;7.20;;;14.40;81.10;;;;;;12066167;28;20056;-79
2021/05/03 09:54:15;;;;;;;13.77;7.88;;;14.90;80.40;;;;;;12077320;28;20059;-77
2021/05/03 10:00:03;;;;;;;14.60;7.20;;;15.10;78.00;;;;;;12071549;28;20048;-79
2021/05/03 10:05:50;;;;;;;8.60;6.75;;;15.30;76.70;;;;;;12070883;28;20131;-78
2021/05/03 10:11:39;;;;;;;11.32;7.15;;;15.30;73.90;;;;;;12074834;28;20052;-78
2021/05/03 10:17:27;;;;;;;9.85;7.03;;;15.00;70.60;;;;;;12072967;28;20049;-78
2021/05/03 10:23:15;;;;;;;10.52;6.70;;;14.80;72.30;;;;;;12074509;28;20052;-78
2021/05/03 10:29:03;;;;;;;11.27;6.50;;;14.50;72.20;;;;;;12094508;28;20103;-80
2021/05/03 10:34:50;;;;;;;10.65;6.38;;;14.60;70.60;;;;;;12075519;28;20160;-77
2021/05/03 10:41:22;;;;;;;10.52;5.28;;;14.70;70.70;;;;;;12036036;28;20150;-79
2021/05/03 10:47:29;;;;;;;7.65;4.90;;;14.80;67.00;;;;;;12015746;28;20136;-79
2021/05/03 10:53:37;;;;;;;6.97;4.45;;;14.70;65.00;;;;;;12041241;28;20056;-79
2021/05/03 10:59:26;;;;;;;8.18;5.30;;;15.10;64.00;;;;;;12025261;28;20060;-79
2021/05/03 11:05:27;;;;;;;9.32;5.03;;;15.50;63.90;;;;;;11971183;28;20064;-77
2021/05/03 11:11:28;;;;;;;;;;;;;;;;;;;;;
2021/05/03 11:17:16;;;;;;;28.42;15.98;;;15.50;63.10;;;;;;11857722;28;20517;-77
2021/05/03 11:23:29;;;;;;;11.45;5.35;;;15.20;62.30;;;;;;11928445;28;20452;-77
2021/05/03 11:29:20;;;;;;;8.40;5.07;;;15.20;61.30;;;;;;12033429;28;20585;-78
2021/05/03 11:35:23;;;;;;;5.93;4.55;;;15.30;60.70;;;;;;12036644;28;20740;-78
2021/05/03 11:41:35;;;;;;;8.40;5.00;;;15.40;60.00;;;;;;11991971;28;20052;-78
2021/05/03 11:47:30;;;;;;;6.80;4.50;;;15.50;60.00;;;;;;12053150;28;20507;-76
2021/05/03 11:53:34;;;;;;;7.38;4.30;;;15.70;60.00;;;;;;12050916;28;20438;-77
2021/05/03 11:59:22;;;;;;;6.50;4.53;;;16.20;59.20;;;;;;12050011;28;20040;-76
2021/05/03 12:05:13;;;;;;;6.90;5.13;;;16.30;58.30;;;;;;12043212;28;20048;-76
2021/05/03 12:11:06;;;;;;;8.75;4.70;;;16.40;57.90;;;;;;12053318;28;20044;-77
2021/05/03 12:16:54;;;;;;;7.30;4.63;;;16.40;57.20;;;;;;12051485;28;20045;-77
2021/05/03 12:22:52;;;;;;;9.70;4.32;;;17.00;56.80;;;;;;12045411;28;20045;-76
2021/05/03 12:28:38;;;;;;;6.22;4.47;;;17.00;54.70;;;;;;12047572;28;20499;-77
2021/05/03 12:34:26;;;;;;;8.40;3.83;;;16.80;53.20;;;;;;12052886;28;20529;-78
2021/05/03 12:40:14;;;;;;;6.97;4.45;;;16.80;55.40;;;;;;12043990;28;20079;-78
2021/05/03 12:46:03;;;;;;;6.30;4.13;;;16.90;56.30;;;;;;12030458;28;20383;-78
2021/05/03 12:52:02;;;;;;;7.72;3.85;;;16.90;52.30;;;;;;12018212;28;20045;-76
2021/05/03 12:57:56;;;;;;;5.63;3.80;;;17.00;51.70;;;;;;12031238;28;20044;-78
2021/05/03 13:03:53;;;;;;;4.57;3.85;;;17.20;52.40;;;;;;12031104;28;20060;-78
2021/05/03 13:10:04;;;;;;;48.05;27.13;;;17.70;52.40;;;;;;12026754;28;20053;-76
2021/05/03 13:28:22;;;;;;;;;;;17.90;51.50;;;;;;11888742;28;20125;-78
2021/05/03 13:34:11;;;;;;;6.03;3.15;;;18.10;51.80;;;;;;11891560;28;19983;-77
2021/05/03 13:39:57;;;;;;;11.82;3.92;;;18.20;51.60;;;;;;11889224;28;20126;-78
2021/05/03 13:45:44;;;;;;;6.53;3.88;;;18.00;51.50;;;;;;11885881;28;20038;-78
2021/05/03 13:51:31;;;;;;;5.97;4.18;;;18.00;51.90;;;;;;11871415;28;20054;-78
2021/05/03 13:57:17;;;;;;;3.67;2.97;;;17.90;52.90;;;;;;11878714;28;20042;-78
2021/05/03 14:03:05;;;;;;;5.57;3.47;;;17.80;53.00;;;;;;11886876;28;20057;-78
2021/05/03 14:08:51;;;;;;;5.10;3.30;;;18.20;52.10;;;;;;11886719;28;20645;-79
2021/05/03 14:14:38;;;;;;;3.90;3.13;;;18.10;52.00;;;;;;11891256;28;21014;-78
2021/05/03 14:20:25;;;;;;;5.72;2.78;;;17.90;53.20;;;;;;11895667;28;20067;-78
2021/05/03 14:26:13;;;;;;;242.50;136.50;;;18.40;54.40;;;;;;11894022;28;20153;-79
2021/05/03 14:32:03;;;;;;;4.72;3.30;;;18.60;53.00;;;;;;11900154;28;20208;-77
2021/05/03 14:37:51;;;;;;;5.57;3.08;;;18.60;53.00;;;;;;11896416;28;20530;-77
2021/05/03 14:43:38;;;;;;;4.03;2.60;;;18.50;51.20;;;;;;11899677;28;20107;-75
2021/05/03 14:55:29;;;;;;;5.53;2.33;;;18.70;51.30;;;;;;11891052;28;20256;-76
2021/05/03 15:01:18;;;;;;;7.40;2.47;;;18.90;50.60;;;;;;11894365;28;20500;-77
2021/05/03 15:07:07;;;;;;;2.50;2.30;;;18.80;50.80;;;;;;11891469;28;20050;-77
2021/05/03 15:12:59;;;;;;;3.55;2.20;;;18.90;49.70;;;;;;11893788;28;20053;-77
2021/05/03 15:19:04;;;;;;;2.72;1.90;;;19.50;49.40;;;;;;11897162;28;20046;-77
2021/05/03 15:24:51;;;;;;;9.93;2.30;;;19.30;47.90;;;;;;11877632;28;20052;-79
2021/05/03 15:30:55;;;;;;;6.72;1.85;;;19.50;47.20;;;;;;11901732;28;20088;-79
2021/05/03 15:36:41;;;;;;;5.28;2.00;;;19.70;46.20;;;;;;11895619;28;20057;-79
2021/05/03 15:42:28;;;;;;;3.35;1.73;;;19.70;46.40;;;;;;11905076;28;20042;-79
2021/05/03 15:48:15;;;;;;;3.75;1.70;;;20.00;46.00;;;;;;11902106;28;20427;-77
2021/05/03 15:54:04;;;;;;;4.00;1.98;;;20.20;46.80;;;;;;11895561;28;20489;-78
2021/05/03 15:59:53;;;;;;;1.50;1.40;;;20.90;44.80;;;;;;11899202;28;20095;-77
2021/05/03 16:05:41;;;;;;;3.65;1.50;;;22.30;42.50;;;;;;11901227;28;20054;-78
2021/05/03 16:11:27;;;;;;;5.18;1.90;;;23.70;38.90;;;;;;11896535;28;20060;-77
2021/05/03 16:17:14;;;;;;;2.00;1.30;;;24.30;38.00;;;;;;11897306;28;20080;-77
2021/05/03 16:23:01;;;;;;;1.58;1.48;;;24.90;36.70;;;;;;11903230;28;20054;-77
2021/05/03 16:28:47;;;;;;;2.20;1.50;;;24.90;37.20;;;;;;11897640;28;20072;-77
2021/05/03 16:34:34;;;;;;;3.00;1.42;;;25.60;36.10;;;;;;11894997;28;20057;-78
2021/05/03 16:40:23;;;;;;;4.40;1.40;;;26.30;35.30;;;;;;11891932;28;20042;-78
2021/05/03 16:46:09;;;;;;;2.50;1.42;;;27.10;32.90;;;;;;11896255;28;20081;-76
2021/05/03 16:51:56;;;;;;;5.65;1.40;;;26.20;33.40;;;;;;11913266;28;20268;-77
2021/05/03 16:57:43;;;;;;;2.80;1.52;;;25.00;33.80;;;;;;11895524;28;20041;-77
2021/05/03 17:03:29;;;;;;;2.17;1.40;;;23.90;35.80;;;;;;11898384;28;20068;-76
2021/05/03 17:09:16;;;;;;;4.25;2.10;;;22.60;37.70;;;;;;11882711;28;20058;-77
2021/05/03 17:15:05;;;;;;;5.00;1.42;;;22.10;39.20;;;;;;11887539;28;20141;-77
2021/05/03 17:20:52;;;;;;;3.40;1.45;;;21.30;40.20;;;;;;11887934;28;20100;-77
2021/05/03 17:26:38;;;;;;;2.17;1.80;;;20.80;42.10;;;;;;11890845;28;20060;-78
2021/05/03 17:32:26;;;;;;;2.95;1.67;;;20.30;42.40;;;;;;11873923;28;20085;-76
2021/05/03 17:38:13;;;;;;;5.00;1.65;;;19.80;43.70;;;;;;11883544;28;20058;-77
2021/05/03 17:44:03;;;;;;;3.97;1.40;;;19.50;44.10;;;;;;11886477;28;20116;-77
2021/05/03 17:49:50;;;;;;;3.33;1.45;;;19.30;43.80;;;;;;11891102;28;20057;-77
2021/05/03 17:55:37;;;;;;;5.00;1.40;;;19.00;45.00;;;;;;11889232;28;20046;-78
2021/05/03 18:01:24;;;;;;;9.15;1.40;;;18.60;44.90;;;;;;11902887;28;20060;-78
2021/05/03 18:07:12;;;;;;;5.90;1.40;;;18.30;44.90;;;;;;11902383;28;20124;-83
2021/05/03 18:12:58;;;;;;;7.60;1.90;;;18.20;45.10;;;;;;11903112;28;20062;-78
2021/05/03 18:18:45;;;;;;;3.67;1.55;;;18.10;45.50;;;;;;11899128;28;20054;-76
2021/05/03 18:24:32;;;;;;;2.40;1.23;;;18.10;45.70;;;;;;11895252;28;20160;-78
2021/05/03 18:30:19;;;;;;;1.38;1.27;;;18.00;46.20;;;;;;11899033;28;20149;-77
2021/05/03 18:36:07;;;;;;;4.07;1.63;;;18.00;46.40;;;;;;11900413;28;20077;-77
2021/05/03 18:41:55;;;;;;;3.35;1.77;;;18.00;46.90;;;;;;11890269;28;20072;-77
2021/05/03 18:47:42;;;;;;;6.55;1.23;;;17.70;47.60;;;;;;11892752;28;20057;-77
2021/05/03 18:53:31;;;;;;;3.15;2.10;;;17.60;47.90;;;;;;11851178;28;20053;-78
2021/05/03 18:59:19;;;;;;;1.27;1.08;;;17.70;48.60;;;;;;11878439;28;20526;-77
2021/05/03 19:05:07;;;;;;;2.78;1.40;;;17.40;49.60;;;;;;11894706;28;20459;-77
2021/05/03 19:10:53;;;;;;;3.72;1.30;;;17.00;50.30;;;;;;11885412;28;20054;-77
2021/05/03 19:16:41;;;;;;;5.10;1.98;;;16.90;51.20;;;;;;11901764;28;20056;-78
2021/05/03 19:22:27;;;;;;;2.60;1.40;;;16.80;51.80;;;;;;11889053;28;20708;-78
2021/05/03 19:28:14;;;;;;;3.65;1.27;;;17.00;51.80;;;;;;11891603;28;20132;-78
2021/05/03 19:34:02;;;;;;;3.38;1.58;;;17.00;52.30;;;;;;11871438;28;20064;-78
2021/05/03 19:39:49;;;;;;;2.60;1.35;;;16.70;52.60;;;;;;11892613;28;20127;-79
2021/05/03 19:45:36;;;;;;;3.80;1.42;;;16.80;52.80;;;;;;11894633;28;20049;-77
2021/05/03 19:51:28;;;;;;;1.20;1.00;;;16.70;52.90;;;;;;11895706;28;20161;-76
2021/05/03 20:03:27;;;;;;;;;;;16.50;52.90;;;;;;11892338;28;20662;-77
2021/05/03 20:09:14;;;;;;;7.10;1.30;;;16.40;52.90;;;;;;11890039;28;19968;-76
2021/05/03 20:15:02;;;;;;;4.78;1.70;;;16.70;53.20;;;;;;11888154;28;20103;-76
2021/05/03 20:20:49;;;;;;;5.38;1.10;;;16.50;53.10;;;;;;11887190;28;20103;-76
2021/05/03 20:26:36;;;;;;;5.18;2.00;;;16.50;53.20;;;;;;11871557;28;20545;-76
2021/05/03 20:32:22;;;;;;;5.15;1.25;;;16.50;53.70;;;;;;11877888;28;20417;-75
2021/05/03 20:44:05;;;;;;;1.60;1.10;;;16.10;54.10;;;;;;11895158;28;20042;-77
2021/05/03 20:49:51;;;;;;;5.45;1.25;;;16.00;54.40;;;;;;11895970;28;20053;-78
2021/05/03 20:55:40;;;;;;;3.60;1.20;;;16.00;54.90;;;;;;11894869;28;20049;-78
2021/05/03 21:01:27;;;;;;;2.72;1.20;;;15.90;55.30;;;;;;11892845;28;20050;-77
2021/05/03 21:07:13;;;;;;;6.47;1.50;;;15.90;55.20;;;;;;11895690;28;20108;-77
2021/05/03 21:13:00;;;;;;;2.42;1.38;;;16.20;55.10;;;;;;11899028;28;20081;-78
2021/05/03 21:18:47;;;;;;;7.07;1.42;;;16.20;55.10;;;;;;11890341;28;20046;-78
2021/05/03 21:24:36;;;;;;;2.45;1.30;;;15.60;55.90;;;;;;11918377;28;20056;-79
2021/05/03 21:30:22;;;;;;;4.95;1.50;;;15.40;56.80;;;;;;11908133;28;20057;-78
2021/05/03 21:36:10;;;;;;;8.90;1.45;;;15.50;56.70;;;;;;11892611;28;20077;-78
2021/05/03 21:41:56;;;;;;;4.90;1.58;;;15.60;56.60;;;;;;11888691;28;20084;-77
2021/05/03 21:47:43;;;;;;;2.22;1.30;;;15.40;56.40;;;;;;11889776;28;20053;-77
2021/05/03 21:53:30;;;;;;;4.78;1.27;;;15.40;56.30;;;;;;11897494;28;20054;-78
2021/05/03 21:59:18;;;;;;;7.90;1.35;;;15.10;56.30;;;;;;11897735;28;20058;-77
2021/05/03 22:05:05;;;;;;;6.40;1.40;;;14.90;56.60;;;;;;11885127;28;20161;-78
2021/05/03 22:10:52;;;;;;;2.13;1.33;;;15.10;56.40;;;;;;11888656;28;20373;-77
2021/05/03 22:16:42;;;;;;;3.92;1.40;;;15.00;56.70;;;;;;11885733;28;20057;-77
2021/05/03 22:22:41;;;;;;;5.60;1.45;;;14.90;57.70;;;;;;11876181;28;20046;-77
2021/05/03 22:28:39;;;;;;;2.80;1.42;;;14.40;58.90;;;;;;11884851;28;20053;-78
2021/05/03 22:34:26;;;;;;;2.17;1.50;;;14.60;59.00;;;;;;11891260;28;20053;-77
2021/05/03 22:59:01;;;;;;;9.07;1.50;;;14.60;61.40;;;;;;11897777;28;20041;-78
2021/05/03 23:05:07;;;;;;;4.47;1.90;;;14.70;62.00;;;;;;11891403;28;20073;-77
2021/05/03 23:17:13;;;;;;;3.10;1.90;;;14.00;63.70;;;;;;11893719;28;20049;-77
2021/05/03 23:23:00;;;;;;;2.55;1.67;;;14.00;64.30;;;;;;11892406;28;20820;-78
